Time;durP1;ratioP1;P1;durP2;ratioP2;P2;SDS_P1;SDS_P2;PMS_P1;PMS_P2;Temp;Humidity;BMP_temperature;BMP_pressure;BME280_temperature;BME280_humidity;BME280_pressure;Samples;Min_cycle;Max_cycle;Signal;HPM_P1;HPM_P2
2022/03/08 00:01:34;;;;;;;25.97;15.60;;;0.60;42.90;;;1.23;39.21;98153.28;6235301;23;20030;-38
2022/03/08 00:04:02;;;;;;;31.57;16.57;;;0.60;43.00;;;1.22;38.83;98152.41;6235325;23;20015;-38
2022/03/08 00:06:30;;;;;;;27.23;15.83;;;0.60;43.20;;;1.21;39.28;98157.78;6233852;23;20017;-38
2022/03/08 00:08:58;;;;;;;25.37;14.63;;;0.50;43.10;;;1.20;38.66;98153.47;6234039;23;20016;-39
2022/03/08 00:11:26;;;;;;;28.23;17.10;;;0.60;43.10;;;1.16;39.24;98158.91;6237414;23;20202;-38
2022/03/08 00:13:54;;;;;;;26.93;16.00;;;0.50;43.40;;;1.15;39.12;98161.59;6235536;23;20020;-38
2022/03/08 00:16:21;;;;;;;23.37;13.53;;;0.50;43.20;;;1.12;39.47;98157.38;6245648;23;20035;-38
2022/03/08 00:18:49;;;;;;;23.23;13.13;;;0.40;43.50;;;1.10;39.23;98164.47;6235940;23;20392;-38
2022/03/08 00:21:18;;;;;;;19.43;12.73;;;0.40;44.20;;;1.08;38.91;98161.09;6209526;23;20031;-38
2022/03/08 00:23:47;;;;;;;18.47;12.57;;;0.50;43.50;;;1.07;39.75;98163.84;6233929;23;20020;-38
2022/03/08 00:26:15;;;;;;;20.97;12.23;;;0.40;43.80;;;1.02;39.65;98158.00;6235066;23;20024;-38
2022/03/08 00:28:43;;;;;;;20.27;12.40;;;0.40;43.80;;;1.00;38.98;98165.97;6234505;23;20269;-38
2022/03/08 00:31:11;;;;;;;21.87;13.10;;;0.40;43.90;;;0.96;38.92;98167.06;6181720;23;20016;-38
2022/03/08 00:33:41;;;;;;;22.30;12.90;;;0.30;44.30;;;0.93;39.36;98177.72;6233996;23;20351;-38
2022/03/08 00:36:09;;;;;;;24.93;13.70;;;0.20;44.30;;;0.91;40.04;98172.59;6235004;23;20020;-38
2022/03/08 00:39:14;;;;;;;21.47;12.77;;;0.20;44.30;;;0.88;39.84;98167.50;6207425;23;20051;-38
2022/03/08 00:41:44;;;;;;;18.70;11.50;;;0.30;45.20;;;0.87;39.88;98172.84;6234575;23;20038;-38
2022/03/08 00:44:12;;;;;;;22.83;12.27;;;0.20;44.70;;;0.86;39.27;98173.78;6234005;23;20340;-38
2022/03/08 00:46:39;;;;;;;20.50;13.03;;;0.20;44.40;;;0.82;40.24;98173.09;6235883;23;20020;-38
2022/03/08 00:49:07;;;;;;;22.00;12.87;;;0.20;44.50;;;0.79;40.02;98173.28;6207543;23;20022;-38
2022/03/08 00:51:36;;;;;;;21.67;12.87;;;0.10;44.80;;;0.78;39.99;98174.22;6208219;23;20016;-38
2022/03/08 00:54:04;;;;;;;20.50;12.10;;;0.10;44.90;;;0.74;39.47;98170.91;6235557;23;20225;-38
2022/03/08 00:56:32;;;;;;;22.07;12.07;;;0.00;45.00;;;0.72;39.83;98174.56;6235815;23;20020;-38
2022/03/08 00:59:00;;;;;;;20.93;11.93;;;0.00;45.10;;;0.67;39.69;98160.88;6237385;23;20022;-38
2022/03/08 01:01:30;;;;;;;18.67;11.73;;;0.00;45.10;;;0.63;40.34;98162.81;6210772;23;20020;-38
2022/03/08 01:03:58;;;;;;;22.53;13.30;;;0.00;45.50;;;0.63;40.11;98161.97;6235877;23;20022;-38
2022/03/08 01:06:26;;;;;;;22.47;12.73;;;0.00;45.20;;;0.59;40.54;98158.69;6235376;23;20018;-38
2022/03/08 01:08:54;;;;;;;23.17;12.53;;;-0.10;45.70;;;0.54;41.02;98164.19;6236950;23;20012;-38
2022/03/08 01:11:25;;;;;;;20.40;11.97;;;-0.20;46.00;;;0.51;40.58;98159.09;6235182;23;20016;-38
2022/03/08 01:13:54;;;;;;;23.17;13.10;;;-0.20;46.10;;;0.48;40.41;98156.66;6209081;23;20025;-38
2022/03/08 01:16:22;;;;;;;20.47;12.40;;;-0.20;46.30;;;0.45;40.53;98156.00;6234916;23;20020;-38
2022/03/08 01:18:51;;;;;;;22.07;12.63;;;-0.30;46.80;;;0.43;40.87;98156.09;6238869;23;20340;-38
2022/03/08 01:21:18;;;;;;;16.93;10.50;;;-0.30;47.00;;;0.40;41.18;98151.00;6236873;23;20016;-38
2022/03/08 01:23:46;;;;;;;21.70;11.77;;;-0.30;46.90;;;0.37;41.46;98154.66;6236643;23;20434;-38
2022/03/08 01:26:15;;;;;;;22.43;12.07;;;-0.30;46.80;;;0.36;41.37;98152.94;6208229;23;20368;-38
2022/03/08 01:28:44;;;;;;;20.70;12.23;;;-0.30;46.80;;;0.36;41.58;98149.47;6236208;23;20018;-38
2022/03/08 01:31:12;;;;;;;17.73;11.07;;;-0.30;47.00;;;0.34;41.52;98146.94;6209831;23;20030;-38
2022/03/08 01:33:40;;;;;;;17.80;11.67;;;-0.30;46.80;;;0.34;40.77;98140.88;6209015;23;20016;-38
2022/03/08 01:36:08;;;;;;;23.67;12.07;;;-0.30;46.80;;;0.34;41.20;98136.47;6209751;23;20020;-38
2022/03/08 01:38:39;;;;;;;19.70;11.70;;;-0.30;47.00;;;0.30;41.33;98127.09;6208016;23;20051;-38
2022/03/08 01:41:07;;;;;;;18.57;11.03;;;-0.40;47.70;;;0.26;41.85;98122.13;6238127;23;20022;-38
2022/03/08 01:43:35;;;;;;;19.70;11.03;;;-0.40;47.20;;;0.22;40.91;98126.69;6234280;23;20028;-38
2022/03/08 01:46:03;;;;;;;18.83;11.27;;;-0.50;47.60;;;0.19;40.97;98129.47;6235238;23;20024;-38
2022/03/08 01:48:32;;;;;;;19.00;12.33;;;-0.50;47.60;;;0.15;41.10;98123.53;6236127;23;20325;-38
2022/03/08 01:51:00;;;;;;;17.83;10.67;;;-0.50;47.60;;;0.10;41.15;98133.44;6234409;23;20195;-38
2022/03/08 01:53:28;;;;;;;18.17;10.80;;;-0.60;47.50;;;0.05;41.43;98127.59;6236452;23;20048;-38
2022/03/08 01:55:56;;;;;;;18.70;10.73;;;-0.60;48.00;;;-0.02;41.67;98129.72;6210555;23;20016;-38
2022/03/08 01:58:24;;;;;;;16.90;9.60;;;-0.80;47.90;;;-0.04;41.40;98118.50;6236763;23;20024;-38
2022/03/08 02:00:53;;;;;;;19.07;10.63;;;-0.70;48.00;;;-0.05;41.47;98119.41;6209364;23;20325;-38
2022/03/08 02:03:21;;;;;;;17.33;10.50;;;-0.70;48.20;;;-0.07;41.48;98115.19;6236826;23;20028;-38
2022/03/08 02:05:49;;;;;;;19.70;10.50;;;-0.70;47.80;;;-0.08;42.05;98113.47;6236288;23;20020;-38
2022/03/08 02:08:17;;;;;;;20.63;12.07;;;-0.80;48.20;;;-0.10;41.61;98110.09;6235316;23;20026;-41
2022/03/08 02:10:45;;;;;;;18.83;10.83;;;-0.80;48.10;;;-0.12;42.06;98112.81;6208516;23;20024;-38
2022/03/08 02:13:13;;;;;;;20.10;10.53;;;-0.80;48.20;;;-0.14;41.73;98108.59;6234976;23;20020;-38
2022/03/08 02:15:46;;;;;;;19.83;10.70;;;-0.80;48.20;;;-0.24;42.01;98103.00;6235370;23;20023;-38
2022/03/08 02:18:14;;;;;;;16.20;9.27;;;-1.00;48.50;;;-0.29;41.91;98102.41;6221877;23;20022;-38
2022/03/08 02:20:42;;;;;;;20.73;11.57;;;-1.00;49.10;;;-0.31;42.04;98088.56;6234516;23;20022;-38
2022/03/08 02:23:10;;;;;;;16.57;9.73;;;-1.00;48.80;;;-0.34;41.99;98079.09;6236096;23;20030;-39
2022/03/08 02:25:38;;;;;;;18.30;10.20;;;-1.10;48.90;;;-0.34;42.14;98079.09;6235881;23;20205;-38
2022/03/08 02:28:06;;;;;;;16.07;9.77;;;-1.00;48.70;;;-0.32;42.36;98077.25;6235896;23;20020;-38
2022/03/08 02:30:34;;;;;;;16.80;10.00;;;-1.00;48.70;;;-0.32;42.19;98079.88;6236571;23;20034;-38
2022/03/08 02:33:02;;;;;;;16.33;9.30;;;-1.00;48.70;;;-0.33;42.17;98077.31;6210542;23;20468;-38
2022/03/08 02:35:31;;;;;;;18.03;10.13;;;-1.00;48.70;;;-0.30;41.96;98083.25;6236281;23;20420;-38
2022/03/08 02:38:04;;;;;;;12.43;8.83;;;-0.90;48.40;;;-0.25;42.36;98080.41;6235577;23;20022;-38
2022/03/08 02:40:37;;;;;;;14.63;9.10;;;-0.80;48.50;;;-0.20;41.90;98073.97;6245143;23;20028;-38
2022/03/08 02:43:07;;;;;;;16.50;9.03;;;-0.70;48.40;;;-0.17;42.59;98074.75;6219909;23;20022;-38
2022/03/08 02:45:36;;;;;;;17.33;9.73;;;-0.70;49.50;;;-0.15;42.40;98076.34;6235457;23;20020;-38
2022/03/08 02:48:05;;;;;;;15.77;8.97;;;-0.70;48.70;;;-0.13;42.20;98077.09;6235627;23;20012;-38
2022/03/08 02:50:33;;;;;;;17.77;9.23;;;-0.70;48.50;;;-0.15;42.51;98073.72;6235539;23;20241;-38
2022/03/08 02:53:01;;;;;;;15.33;9.30;;;-0.70;48.40;;;-0.16;42.45;98081.66;6236537;23;20027;-38
2022/03/08 02:55:33;;;;;;;16.73;10.07;;;-0.70;48.60;;;-0.18;42.84;98073.03;6235068;23;20034;-38
2022/03/08 02:58:02;;;;;;;15.77;8.23;;;-0.80;48.80;;;-0.19;42.16;98074.81;6233058;23;20187;-38
2022/03/08 03:00:32;;;;;;;16.53;10.13;;;-0.80;48.70;;;-0.18;42.83;98078.28;6236174;23;20026;-38
2022/03/08 03:03:01;;;;;;;15.67;9.77;;;-0.80;48.80;;;-0.21;42.42;98077.53;6236452;23;20629;-38
2022/03/08 03:05:30;;;;;;;16.00;9.83;;;-0.90;49.10;;;-0.23;42.94;98070.69;6233666;23;20034;-38
2022/03/08 03:07:58;;;;;;;17.97;11.50;;;-0.90;49.10;;;-0.24;43.07;98072.44;6237110;23;20023;-38
2022/03/08 03:10:27;;;;;;;16.57;10.77;;;-0.90;49.00;;;-0.25;43.36;98062.91;6208859;23;20043;-38
2022/03/08 03:12:56;;;;;;;18.43;11.33;;;-0.90;49.20;;;-0.26;42.90;98063.00;6235097;23;20392;-38
2022/03/08 03:15:27;;;;;;;16.77;10.13;;;-0.90;49.40;;;-0.29;43.33;98053.56;6236963;23;20012;-38
2022/03/08 03:17:56;;;;;;;18.90;11.20;;;-0.90;49.40;;;-0.28;42.69;98054.38;6245413;23;20026;-38
2022/03/08 03:20:26;;;;;;;17.07;11.10;;;-0.90;49.20;;;-0.31;42.66;98044.06;6233929;23;20012;-38
2022/03/08 03:22:54;;;;;;;18.90;11.03;;;-1.00;49.00;;;-0.34;43.12;98047.72;6235914;23;20016;-38
2022/03/08 03:25:21;;;;;;;14.73;10.43;;;-0.90;49.10;;;-0.34;42.86;98039.88;6235482;23;20016;-38
2022/03/08 03:27:50;;;;;;;15.93;10.80;;;-0.90;48.70;;;-0.36;42.59;98041.72;6235532;23;20262;-38
2022/03/08 03:30:18;;;;;;;18.17;11.53;;;-1.00;48.70;;;-0.37;42.81;98039.19;6234693;23;20065;-38
2022/03/08 03:32:47;;;;;;;19.23;10.03;;;-1.00;49.30;;;-0.40;42.50;98034.97;6236593;23;20034;-38
2022/03/08 03:35:15;;;;;;;15.07;8.37;;;-1.00;49.00;;;-0.39;43.01;98036.63;6209851;23;20018;-38
2022/03/08 03:37:43;;;;;;;12.80;8.57;;;-1.00;49.10;;;-0.37;42.90;98033.94;6233646;23;20018;-38
2022/03/08 03:40:13;;;;;;;15.67;9.43;;;-1.00;49.30;;;-0.38;42.91;98034.88;6235889;23;20199;-38
2022/03/08 03:42:42;;;;;;;15.63;9.53;;;-1.00;49.40;;;-0.38;42.84;98043.56;6236283;23;20016;-38
2022/03/08 03:45:10;;;;;;;15.33;9.10;;;-1.00;49.50;;;-0.36;43.18;98040.88;6236030;23;20038;-38
2022/03/08 03:47:38;;;;;;;16.63;9.90;;;-1.00;49.10;;;-0.34;43.51;98039.88;6208832;23;20306;-38
2022/03/08 03:50:08;;;;;;;17.10;10.60;;;-0.90;49.10;;;-0.32;43.61;98038.00;6234492;23;20024;-38
2022/03/08 03:52:37;;;;;;;17.03;9.80;;;-0.90;49.20;;;-0.32;42.73;98038.00;6234315;23;20225;-38
2022/03/08 03:55:11;;;;;;;13.33;9.07;;;-0.90;49.30;;;-0.33;43.16;98036.34;6244195;23;20018;-38
2022/03/08 03:57:40;;;;;;;17.20;9.87;;;-0.90;49.10;;;-0.34;42.84;98033.78;6235148;23;20046;-38
2022/03/08 04:00:12;;;;;;;19.83;10.63;;;-1.00;49.30;;;-0.34;43.33;98036.41;6206956;23;20026;-38
2022/03/08 04:02:41;;;;;;;22.17;11.07;;;-1.00;49.10;;;-0.35;43.36;98027.72;6245222;23;20046;-38
2022/03/08 04:05:10;;;;;;;20.03;12.37;;;-0.90;49.10;;;-0.40;43.18;98038.44;6233669;23;20020;-38
2022/03/08 04:07:39;;;;;;;19.17;10.53;;;-1.10;49.40;;;-0.46;43.57;98037.94;6207233;23;20020;-38
2022/03/08 04:10:09;;;;;;;22.40;12.03;;;-1.10;49.70;;;-0.48;42.98;98031.94;6234478;23;20024;-38
2022/03/08 04:12:37;;;;;;;21.50;13.27;;;-1.20;49.60;;;-0.51;43.59;98039.94;6235881;23;20027;-38
2022/03/08 04:15:06;;;;;;;23.10;13.23;;;-1.20;49.80;;;-0.54;43.27;98027.00;6234325;23;20012;-38
2022/03/08 04:17:34;;;;;;;20.70;13.17;;;-1.20;50.10;;;-0.57;43.65;98043.72;6235047;23;20038;-38
2022/03/08 04:20:05;;;;;;;23.10;12.20;;;-1.30;50.00;;;-0.60;43.28;98036.88;6235167;23;20326;-38
2022/03/08 04:22:33;;;;;;;20.40;12.07;;;-1.30;50.20;;;-0.64;43.62;98034.50;6235715;23;20016;-38
2022/03/08 04:25:03;;;;;;;18.13;12.53;;;-1.30;50.20;;;-0.70;43.32;98043.53;6235604;23;20221;-38
2022/03/08 04:27:31;;;;;;;16.57;11.50;;;-1.40;50.40;;;-0.76;43.86;98043.00;6235239;23;20034;-38
2022/03/08 04:29:59;;;;;;;20.90;11.43;;;-1.50;50.80;;;-0.77;43.63;98039.56;6234584;23;20350;-38
2022/03/08 04:32:26;;;;;;;15.83;9.60;;;-1.40;50.90;;;-0.78;43.94;98031.78;6212623;23;20016;-38
2022/03/08 04:34:54;;;;;;;22.20;10.13;;;-1.40;51.20;;;-0.79;43.89;98028.34;6236222;23;20019;-38
2022/03/08 04:37:22;;;;;;;20.30;11.17;;;-1.40;51.00;;;-0.79;44.09;98030.94;6235996;23;20022;-38
2022/03/08 04:39:50;;;;;;;21.23;11.93;;;-1.40;51.00;;;-0.78;43.67;98027.41;6209284;23;20415;-38
2022/03/08 04:42:18;;;;;;;22.77;12.07;;;-1.40;50.60;;;-0.78;44.17;98026.56;6236377;23;20027;-38
2022/03/08 04:44:46;;;;;;;18.60;11.57;;;-1.40;50.80;;;-0.83;43.87;98029.44;6236525;23;20027;-38
2022/03/08 04:47:14;;;;;;;22.03;12.47;;;-1.50;51.40;;;-0.92;43.74;98029.91;6236654;23;20012;-38
2022/03/08 04:49:41;;;;;;;17.90;11.63;;;-1.60;51.40;;;-0.97;43.93;98029.28;6236070;23;20016;-38
2022/03/08 04:52:09;;;;;;;20.80;12.23;;;-1.70;51.40;;;-1.00;44.39;98018.06;6238935;23;20019;-38
2022/03/08 04:54:38;;;;;;;19.07;11.23;;;-1.70;51.60;;;-0.98;44.51;98018.00;6234607;23;20024;-38
2022/03/08 04:57:06;;;;;;;23.33;12.67;;;-1.60;51.60;;;-0.97;44.58;98019.66;6236556;23;20078;-38
2022/03/08 04:59:34;;;;;;;18.37;11.87;;;-1.60;51.10;;;-0.96;44.50;98025.75;6236885;23;20030;-38
2022/03/08 05:02:02;;;;;;;21.10;12.87;;;-1.60;51.10;;;-0.93;44.67;98022.97;6237044;23;20087;-38
2022/03/08 05:04:30;;;;;;;19.53;11.23;;;-1.50;51.30;;;-0.91;44.50;98026.34;6235485;23;20027;-38
2022/03/08 05:06:57;;;;;;;22.27;11.10;;;-1.50;50.90;;;-0.89;44.18;98024.50;6233831;23;20052;-38
2022/03/08 05:09:25;;;;;;;27.93;14.33;;;-1.40;50.70;;;-0.86;43.86;98026.97;6236475;23;20020;-38
2022/03/08 05:11:53;;;;;;;35.83;15.87;;;-1.40;50.70;;;-0.87;44.34;98022.69;6209956;23;20030;-38
2022/03/08 05:14:21;;;;;;;36.07;18.07;;;-1.40;50.80;;;-0.86;44.05;98027.78;6235415;23;20018;-38
2022/03/08 05:16:49;;;;;;;33.50;15.93;;;-1.40;50.50;;;-0.86;44.15;98026.97;6234015;23;20028;-38
2022/03/08 05:19:17;;;;;;;50.93;19.67;;;-1.40;50.40;;;-0.85;44.08;98020.81;6236502;23;20022;-38
2022/03/08 05:21:45;;;;;;;39.63;19.07;;;-1.40;50.70;;;-0.84;44.61;98025.94;6234610;23;20050;-38
2022/03/08 05:24:13;;;;;;;31.47;14.20;;;-1.40;50.50;;;-0.83;44.78;98017.19;6207874;23;20042;-38
2022/03/08 05:26:41;;;;;;;26.30;13.50;;;-1.40;50.80;;;-0.82;44.24;98016.25;6236551;23;20015;-38
2022/03/08 05:29:09;;;;;;;28.23;14.20;;;-1.40;50.90;;;-0.84;44.33;98007.66;6236340;23;20026;-38
2022/03/08 05:31:38;;;;;;;27.53;12.47;;;-1.40;50.80;;;-0.84;44.43;98017.25;6236932;23;20366;-38
2022/03/08 05:34:06;;;;;;;25.63;14.03;;;-1.40;50.70;;;-0.90;44.54;98010.59;6236547;23;20466;-38
2022/03/08 05:36:34;;;;;;;27.60;13.13;;;-1.50;50.90;;;-0.96;44.20;98010.09;6235122;23;20310;-38
2022/03/08 05:39:02;;;;;;;31.40;14.90;;;-1.70;51.70;;;-1.05;44.61;98012.25;6236795;23;20024;-38
2022/03/08 05:41:30;;;;;;;30.87;14.23;;;-1.70;51.40;;;-1.09;44.58;98015.94;6238135;23;20241;-38
2022/03/08 05:43:58;;;;;;;38.70;16.00;;;-1.80;51.30;;;-1.13;45.06;98008.34;6236490;23;20011;-38
2022/03/08 05:46:26;;;;;;;29.67;14.73;;;-1.80;51.90;;;-1.16;44.69;98014.56;6236923;23;20019;-38
2022/03/08 05:48:54;;;;;;;23.20;12.90;;;-1.90;51.60;;;-1.13;44.95;98032.69;6236727;23;20016;-38
2022/03/08 05:51:22;;;;;;;17.23;10.00;;;-1.80;51.00;;;-1.12;44.75;98031.78;6236681;23;20019;-38
2022/03/08 05:53:52;;;;;;;18.37;9.33;;;-1.70;50.90;;;-1.10;44.68;98023.88;6209295;23;20030;-39
2022/03/08 05:56:21;;;;;;;14.00;8.87;;;-1.70;50.90;;;-1.07;44.16;98029.75;6245850;23;20019;-39
2022/03/08 05:58:48;;;;;;;17.20;8.33;;;-1.70;50.80;;;-1.06;44.79;98023.63;6236544;23;20547;-39
2022/03/08 06:01:16;;;;;;;14.30;8.60;;;-1.60;50.60;;;-1.07;44.34;98027.16;6237269;23;20241;-38
2022/03/08 06:03:44;;;;;;;18.00;8.73;;;-1.70;51.00;;;-1.10;44.45;98037.78;6236896;23;20396;-38
2022/03/08 06:06:12;;;;;;;16.80;8.47;;;-1.70;51.00;;;-1.11;44.96;98033.47;6235128;23;20024;-40
2022/03/08 06:08:40;;;;;;;15.97;8.83;;;-1.70;51.00;;;-1.13;44.07;98032.69;6234772;23;20046;-39
2022/03/08 06:11:08;;;;;;;13.50;8.10;;;-1.70;51.20;;;-1.10;44.82;98029.09;6235661;23;20012;-39
2022/03/08 06:13:36;;;;;;;14.13;8.63;;;-1.70;50.90;;;-1.10;45.02;98039.56;6235727;23;20038;-39
2022/03/08 06:16:04;;;;;;;13.23;7.73;;;-1.70;51.00;;;-1.12;44.39;98033.56;6206539;23;20024;-39
2022/03/08 06:18:33;;;;;;;14.57;8.83;;;-1.70;50.80;;;-1.10;44.63;98043.00;6236212;23;20047;-39
2022/03/08 06:21:01;;;;;;;13.70;8.03;;;-1.70;50.60;;;-1.10;44.33;98043.00;6236222;23;20024;-39
2022/03/08 06:23:29;;;;;;;12.63;8.77;;;-1.70;50.60;;;-1.08;45.02;98051.59;6237037;23;20328;-40
2022/03/08 06:25:57;;;;;;;14.73;8.53;;;-1.60;50.60;;;-1.03;44.58;98057.44;6234925;23;20028;-39
2022/03/08 06:28:25;;;;;;;13.97;9.37;;;-1.50;50.60;;;-1.00;44.75;98052.03;6234181;23;20020;-40
2022/03/08 06:30:58;;;;;;;14.10;8.80;;;-1.50;50.40;;;-0.94;44.79;98060.50;6245230;23;20012;-39
2022/03/08 06:33:27;;;;;;;15.30;9.70;;;-1.40;50.20;;;-0.88;44.13;98058.41;6235812;23;20020;-40
2022/03/08 06:35:55;;;;;;;17.13;10.13;;;-1.30;50.10;;;-0.86;44.12;98061.78;6235516;23;20023;-39
2022/03/08 06:38:24;;;;;;;19.37;10.17;;;-1.30;50.00;;;-0.81;44.49;98064.19;6235609;23;20016;-40
2022/03/08 06:40:52;;;;;;;15.37;10.57;;;-1.30;50.30;;;-0.78;44.82;98064.00;6232492;23;20027;-39
2022/03/08 06:43:19;;;;;;;16.07;9.10;;;-1.30;50.20;;;-0.77;44.95;98060.47;6235671;23;20322;-39
2022/03/08 06:45:47;;;;;;;15.43;9.40;;;-1.30;50.50;;;-0.74;45.04;98067.31;6235806;23;20070;-39
2022/03/08 06:48:15;;;;;;;16.53;8.00;;;-1.20;50.70;;;-0.71;44.18;98069.78;6235579;23;20020;-39
2022/03/08 06:50:43;;;;;;;15.00;8.50;;;-1.20;50.50;;;-0.68;44.72;98074.81;6235406;23;20012;-39
2022/03/08 06:53:11;;;;;;;12.23;8.17;;;-1.20;50.60;;;-0.67;44.62;98077.34;6234774;23;20020;-39
2022/03/08 06:55:39;;;;;;;16.33;8.13;;;-1.20;50.60;;;-0.65;45.05;98079.91;6235282;23;20027;-38
2022/03/08 06:58:07;;;;;;;15.90;8.60;;;-1.20;50.80;;;-0.64;44.69;98079.81;6235235;23;20024;-39
2022/03/08 07:00:35;;;;;;;17.90;8.63;;;-1.10;50.80;;;-0.61;44.58;98082.25;6235856;23;20024;-39
2022/03/08 07:03:03;;;;;;;14.10;8.53;;;-1.10;50.90;;;-0.60;45.17;98088.34;6235103;23;20026;-39
2022/03/08 07:05:32;;;;;;;15.50;8.37;;;-1.10;51.20;;;-0.56;44.93;98094.25;6235643;23;20035;-39
2022/03/08 07:08:00;;;;;;;15.30;9.20;;;-1.00;51.00;;;-0.54;45.62;98088.03;6233466;23;20024;-39
2022/03/08 07:10:29;;;;;;;17.17;9.03;;;-1.00;51.30;;;-0.50;45.52;98094.78;6210237;23;20208;-39
2022/03/08 07:12:57;;;;;;;18.00;9.03;;;-1.00;51.40;;;-0.48;45.72;98092.09;6236662;23;20031;-39
2022/03/08 07:15:25;;;;;;;16.47;7.97;;;-0.90;51.50;;;-0.46;45.61;98085.84;6236070;23;20020;-39
2022/03/08 07:17:53;;;;;;;17.10;9.17;;;-0.90;51.60;;;-0.40;44.97;98079.44;6235859;23;20024;-39
2022/03/08 07:20:27;;;;;;;12.03;7.07;;;-0.80;51.70;;;-0.38;45.95;98077.59;6245748;23;20309;-39
2022/03/08 07:22:55;;;;;;;16.37;7.73;;;-0.80;51.70;;;-0.34;45.08;98081.72;6236417;23;20022;-39
2022/03/08 07:25:23;;;;;;;14.60;8.83;;;-0.80;51.90;;;-0.29;45.27;98087.56;6237798;23;20124;-39
2022/03/08 07:27:52;;;;;;;15.47;7.87;;;-0.70;51.80;;;-0.26;45.26;98079.53;6256771;23;20322;-39
2022/03/08 07:30:19;;;;;;;12.27;7.37;;;-0.70;51.20;;;-0.18;45.91;98086.97;6225067;23;20026;-39
2022/03/08 07:32:49;;;;;;;11.67;7.13;;;-0.60;50.80;;;-0.13;45.04;98079.72;6251147;23;20320;-39
2022/03/08 07:35:24;;;;;;;13.30;7.50;;;-0.50;50.60;;;-0.07;45.18;98082.00;6250332;23;20024;-39
2022/03/08 07:37:54;;;;;;;13.27;7.57;;;-0.40;50.70;;;-0.01;45.72;98084.28;6262412;23;20030;-38
2022/03/08 07:40:22;;;;;;;14.03;8.37;;;-0.30;50.70;;;0.06;45.90;98086.53;6251766;23;20230;-38
2022/03/08 07:42:51;;;;;;;11.13;8.20;;;-0.30;50.70;;;0.11;44.97;98085.38;6250924;23;20023;-38
2022/03/08 07:45:19;;;;;;;12.17;7.63;;;-0.20;50.50;;;0.16;45.51;98085.13;6250664;23;20028;-39
2022/03/08 07:47:47;;;;;;;12.90;8.23;;;-0.20;50.20;;;0.21;45.26;98087.47;6224123;23;20305;-38
2022/03/08 07:50:15;;;;;;;13.03;7.70;;;-0.10;50.10;;;0.26;44.75;98095.94;6251514;23;20012;-38
2022/03/08 07:52:48;;;;;;;21.50;7.87;;;-0.10;49.70;;;0.31;45.65;98097.38;6261679;23;20030;-38
2022/03/08 07:55:16;;;;;;;15.03;7.90;;;0.00;49.70;;;0.36;45.63;98097.94;6251391;23;20022;-39
2022/03/08 07:57:45;;;;;;;13.57;7.57;;;0.00;49.60;;;0.41;45.03;98097.69;6251723;23;20012;-39
2022/03/08 08:00:32;;;;;;;14.73;8.33;;;0.10;49.50;;;0.47;45.05;98097.34;6261693;23;20018;-39
2022/03/08 08:03:03;;;;;;;13.73;8.07;;;0.10;49.70;;;0.51;44.49;98093.63;6250886;23;20018;-39
2022/03/08 08:05:34;;;;;;;14.50;7.40;;;0.20;49.40;;;0.56;44.56;98094.22;6262249;23;20039;-39
2022/03/08 08:08:04;;;;;;;16.70;8.03;;;0.30;49.40;;;0.62;45.42;98100.00;6251372;23;20016;-39
2022/03/08 08:10:32;;;;;;;17.57;9.00;;;0.30;49.50;;;0.67;44.59;98098.81;6251570;23;20026;-39
2022/03/08 08:13:01;;;;;;;12.50;7.47;;;0.40;49.30;;;0.72;45.20;98103.81;6251006;23;20018;-39
2022/03/08 08:15:31;;;;;;;15.27;9.13;;;0.40;49.10;;;0.76;44.51;98100.06;6251152;23;20011;-39
2022/03/08 08:17:59;;;;;;;12.10;7.60;;;0.50;49.20;;;0.78;44.80;98096.41;6247233;23;20032;-39
2022/03/08 08:20:27;;;;;;;13.03;7.37;;;0.50;49.10;;;0.84;44.65;98097.84;6247104;23;20024;-39
2022/03/08 08:22:55;;;;;;;12.67;7.43;;;0.50;49.10;;;0.91;44.54;98090.44;6246767;23;20020;-39
2022/03/08 08:25:22;;;;;;;13.23;7.23;;;0.60;48.70;;;0.95;44.13;98082.34;6251284;23;20020;-39
2022/03/08 08:27:50;;;;;;;12.03;7.30;;;0.60;48.40;;;0.98;44.31;98086.53;6249282;23;20030;-39
2022/03/08 08:30:18;;;;;;;13.67;7.67;;;0.70;48.50;;;1.03;44.30;98088.88;6251355;23;20348;-39
2022/03/08 08:32:46;;;;;;;13.47;7.60;;;0.80;48.10;;;1.08;43.93;98097.31;6222021;23;20024;-39
2022/03/08 08:35:14;;;;;;;19.07;8.37;;;0.80;48.20;;;1.12;44.65;98091.81;6250432;23;20019;-39
2022/03/08 08:37:42;;;;;;;12.97;7.77;;;0.80;48.30;;;1.18;45.07;98093.22;6250778;23;20013;-39
2022/03/08 08:40:11;;;;;;;18.20;8.13;;;0.90;48.40;;;1.24;44.30;98081.53;6251012;23;20022;-39
2022/03/08 08:42:39;;;;;;;18.30;9.37;;;1.00;48.40;;;1.30;44.27;98074.13;6251312;23;20226;-39
2022/03/08 08:45:08;;;;;;;20.73;8.73;;;1.10;48.60;;;1.36;44.53;98081.63;6251464;23;20031;-39
2022/03/08 08:47:36;;;;;;;13.57;8.00;;;1.20;48.50;;;1.43;44.60;98083.88;6250755;23;20028;-39
2022/03/08 08:50:04;;;;;;;15.30;8.93;;;1.20;48.40;;;1.47;44.40;98080.97;6249110;23;20013;-39
2022/03/08 08:52:32;;;;;;;21.60;8.63;;;1.30;48.40;;;1.51;44.43;98085.13;6250943;23;20187;-39
2022/03/08 08:55:00;;;;;;;12.30;8.07;;;1.30;48.90;;;1.57;44.65;98070.75;6251050;23;20018;-39
2022/03/08 08:57:29;;;;;;;14.67;7.97;;;1.30;48.10;;;1.60;44.69;98070.56;6251240;23;20217;-39
2022/03/08 08:59:56;;;;;;;19.80;9.17;;;1.40;48.00;;;1.67;44.80;98065.81;6245593;23;20035;-39
2022/03/08 09:02:24;;;;;;;14.73;7.77;;;1.40;48.30;;;1.72;44.79;98071.59;6248048;23;20031;-39
2022/03/08 09:04:52;;;;;;;12.07;6.53;;;1.50;48.40;;;1.79;44.13;98066.81;6237200;23;20024;-39
2022/03/08 09:07:20;;;;;;;10.30;6.97;;;1.60;47.90;;;1.86;44.13;98071.59;6223517;23;20426;-39
2022/03/08 09:09:49;;;;;;;11.07;6.63;;;1.60;48.00;;;1.90;44.38;98066.97;6250696;23;20020;-39
2022/03/08 09:12:17;;;;;;;10.27;6.83;;;1.70;47.50;;;1.99;44.34;98074.25;6249186;23;20030;-40
2022/03/08 09:14:44;;;;;;;9.73;6.77;;;1.80;47.40;;;2.06;43.81;98067.69;6249721;23;20020;-39
2022/03/08 09:17:13;;;;;;;8.80;6.40;;;1.90;47.30;;;2.13;44.53;98065.50;6248760;23;20024;-39
2022/03/08 09:19:41;;;;;;;11.03;6.53;;;2.00;47.40;;;2.17;43.87;98065.22;6251753;23;20035;-39
2022/03/08 09:22:09;;;;;;;11.70;6.27;;;2.00;47.30;;;2.24;44.07;98072.72;6224438;23;20329;-39
2022/03/08 09:24:39;;;;;;;8.67;6.23;;;2.10;47.10;;;2.28;43.54;98067.16;6245142;23;20020;-39
2022/03/08 09:27:07;;;;;;;10.73;6.13;;;2.10;46.90;;;2.35;43.41;98067.59;6241788;23;20034;-39
2022/03/08 09:29:35;;;;;;;10.53;6.80;;;2.20;46.50;;;2.44;43.48;98067.00;6239265;23;20062;-39
2022/03/08 09:32:04;;;;;;;11.10;6.50;;;2.30;46.60;;;2.51;43.71;98059.56;6239674;23;20020;-39
2022/03/08 09:34:32;;;;;;;11.23;6.43;;;2.40;46.30;;;2.59;43.21;98056.44;6239157;23;20024;-39
2022/03/08 09:36:59;;;;;;;7.43;5.83;;;2.50;46.20;;;2.65;42.76;98048.13;6237244;23;20188;-39
2022/03/08 09:39:27;;;;;;;8.30;5.93;;;2.50;46.00;;;2.71;43.13;98048.56;6239111;23;20480;-39
2022/03/08 09:41:56;;;;;;;8.30;5.93;;;2.60;45.90;;;2.80;43.06;98051.53;6240075;23;20035;-39
2022/03/08 09:44:24;;;;;;;9.10;5.33;;;2.70;45.80;;;2.86;42.89;98051.97;6236300;23;20194;-39
2022/03/08 09:46:52;;;;;;;6.50;5.20;;;2.70;45.50;;;2.89;41.37;98045.63;6236812;23;20171;-39
2022/03/08 09:49:20;;;;;;;8.97;5.10;;;2.80;43.70;;;3.01;41.60;98055.34;6235530;23;20336;-39
2022/03/08 09:51:52;;;;;;;9.07;4.90;;;2.90;43.70;;;3.08;41.12;98042.63;6235741;23;20012;-39
2022/03/08 09:54:20;;;;;;;7.77;5.00;;;3.00;42.80;;;3.17;41.64;98042.00;6247640;23;20018;-39
2022/03/08 09:56:48;;;;;;;8.90;5.47;;;3.10;43.10;;;3.20;41.44;98043.56;6235484;23;20020;-39
2022/03/08 09:59:19;;;;;;;8.23;5.37;;;3.10;43.10;;;3.27;41.36;98023.78;6209554;23;20213;-39
2022/03/08 10:01:48;;;;;;;9.50;5.60;;;3.20;42.90;;;3.26;40.28;98038.72;6236830;23;20027;-39
2022/03/08 10:04:18;;;;;;;7.93;4.63;;;3.20;42.10;;;3.33;40.13;98034.75;6210401;23;20034;-39
2022/03/08 10:07:09;;;;;;;8.03;5.00;;;3.30;42.70;;;3.45;40.78;98040.94;6236574;23;20026;-39
2022/03/08 10:09:38;;;;;;;8.57;4.60;;;3.40;42.00;;;3.55;40.26;98043.78;6235409;23;20033;-39
2022/03/08 10:12:17;;;;;;;7.43;4.97;;;3.50;42.30;;;3.61;40.39;98035.44;6234771;23;20310;-39
2022/03/08 10:14:45;;;;;;;10.13;5.30;;;3.50;41.90;;;3.68;40.32;98027.94;6235053;23;20030;-39
2022/03/08 10:17:34;;;;;;;10.30;5.00;;;3.60;42.40;;;3.72;39.69;98027.63;6234992;23;20026;-39
2022/03/08 10:20:05;;;;;;;6.83;4.40;;;3.60;40.20;;;3.78;40.08;98033.38;6245712;23;20012;-39
2022/03/08 10:22:42;;;;;;;7.70;4.63;;;3.70;41.40;;;3.80;38.57;98023.59;6246702;23;20206;-39